createdAt,value
2019-03-05T00:00:18.769Z,8.00
2019-03-05T00:02:47.172Z,8.10
2019-03-05T00:05:13.706Z,8.20
2019-03-05T00:07:40.136Z,8.20
2019-03-05T00:10:15.889Z,8.00
2019-03-05T00:12:42.325Z,8.00
2019-03-05T00:15:11.263Z,8.00
2019-03-05T00:17:38.703Z,7.90
2019-03-05T00:20:08.678Z,7.90
2019-03-05T00:22:35.119Z,8.00
2019-03-05T00:25:16.938Z,7.80
2019-03-05T00:27:49.956Z,7.80
2019-03-05T00:30:20.220Z,7.70
2019-03-05T00:32:50.480Z,7.60
2019-03-05T00:35:23.464Z,7.60
2019-03-05T00:37:53.715Z,7.50
2019-03-05T00:40:32.441Z,7.40
2019-03-05T00:43:05.829Z,7.40
2019-03-05T00:45:50.596Z,7.40
2019-03-05T00:48:39.229Z,7.20
2019-03-05T00:51:29.401Z,7.10
2019-03-05T00:54:19.702Z,7.00
2019-03-05T00:57:02.207Z,7.00
2019-03-05T00:59:56.780Z,7.00
2019-03-05T01:02:35.969Z,7.00
2019-03-05T01:05:22.702Z,6.70
2019-03-05T01:07:49.264Z,6.40
2019-03-05T01:10:16.507Z,6.30
2019-03-05T01:12:43.338Z,6.20
2019-03-05T01:15:10.196Z,6.00
2019-03-05T01:17:36.770Z,5.80
2019-03-05T01:20:06.405Z,5.80
2019-03-05T01:22:32.892Z,5.90
2019-03-05T01:24:59.418Z,6.00
2019-03-05T01:27:25.875Z,6.10
2019-03-05T01:29:52.539Z,6.00
2019-03-05T01:32:21.012Z,5.90
2019-03-05T01:34:52.290Z,5.90
2019-03-05T01:37:18.734Z,6.00
2019-03-05T01:39:47.084Z,5.90
2019-03-05T01:42:13.601Z,5.80
2019-03-05T01:44:40.173Z,6.00
2019-03-05T01:47:06.793Z,6.10
2019-03-05T01:49:33.249Z,6.10
2019-03-05T01:51:59.803Z,6.10
2019-03-05T01:54:26.280Z,6.00
2019-03-05T01:56:52.755Z,5.70
2019-03-05T01:59:19.197Z,5.70
2019-03-05T02:01:45.645Z,5.80
2019-03-05T02:04:12.915Z,5.60
2019-03-05T02:06:39.486Z,5.40
2019-03-05T02:09:07.566Z,5.30
2019-03-05T02:11:34.619Z,5.10
2019-03-05T02:14:01.094Z,5.10
2019-03-05T02:16:27.530Z,5.10
2019-03-05T02:18:57.816Z,5.10
2019-03-05T02:21:24.247Z,5.10
2019-03-05T02:24:14.041Z,5.30
2019-03-05T02:27:02.410Z,5.30
2019-03-05T02:29:48.279Z,5.30
2019-03-05T02:32:36.860Z,5.20
2019-03-05T02:35:25.176Z,5.10
2019-03-05T02:38:10.518Z,5.00
2019-03-05T02:40:52.686Z,5.20
2019-03-05T02:43:34.871Z,5.20
2019-03-05T02:46:11.169Z,5.30
2019-03-05T02:49:00.995Z,5.40
2019-03-05T02:51:31.224Z,5.40
2019-03-05T02:54:22.680Z,5.30
2019-03-05T02:57:07.933Z,5.20
2019-03-05T02:59:34.973Z,5.30
2019-03-05T03:09:29.378Z,5.30
2019-03-05T03:11:55.828Z,5.40
2019-03-05T03:14:22.286Z,5.40
2019-03-05T03:16:49.841Z,5.50
2019-03-05T03:19:16.270Z,5.40
2019-03-05T03:21:42.707Z,5.40
2019-03-05T03:24:09.164Z,5.30
2019-03-05T03:26:35.703Z,5.30
2019-03-05T03:29:02.177Z,5.30
2019-03-05T03:31:28.629Z,5.40
2019-03-05T03:33:55.060Z,5.40
2019-03-05T03:36:21.582Z,5.40
2019-03-05T03:38:48.068Z,5.30
2019-03-05T03:41:15.489Z,5.30
2019-03-05T03:43:41.931Z,5.30
2019-03-05T03:46:08.521Z,5.30
2019-03-05T03:48:34.979Z,5.20
2019-03-05T03:51:01.448Z,5.00
2019-03-05T03:53:29.014Z,5.00
2019-03-05T03:55:55.649Z,5.10
2019-03-05T03:58:22.284Z,5.10
2019-03-05T04:00:48.765Z,5.20
2019-03-05T04:03:15.700Z,5.20
2019-03-05T04:05:42.244Z,5.20
2019-03-05T04:08:10.467Z,5.00
2019-03-05T04:10:37.186Z,5.00
2019-03-05T04:13:03.641Z,5.10
2019-03-05T04:15:30.072Z,5.10
2019-03-05T04:17:56.635Z,5.10
2019-03-05T04:20:27.714Z,5.00
2019-03-05T04:22:54.165Z,4.80
2019-03-05T04:25:20.601Z,4.80
2019-03-05T04:27:47.052Z,4.80
2019-03-05T04:30:13.723Z,4.70
2019-03-05T04:32:40.187Z,4.70
2019-03-05T04:35:09.541Z,4.70
2019-03-05T04:37:35.993Z,4.60
2019-03-05T04:40:04.917Z,4.70
2019-03-05T04:42:31.369Z,4.80
2019-03-05T04:44:59.711Z,4.80
2019-03-05T04:47:26.170Z,4.60
2019-03-05T04:49:54.522Z,4.60
2019-03-05T04:52:22.270Z,4.60
2019-03-05T04:54:48.697Z,4.60
2019-03-05T04:57:15.141Z,4.60
2019-03-05T04:59:41.607Z,4.70
2019-03-05T05:02:08.147Z,4.80
2019-03-05T05:04:34.717Z,4.80
2019-03-05T05:07:01.156Z,4.80
2019-03-05T05:09:27.741Z,4.80
2019-03-05T05:11:54.181Z,4.80
2019-03-05T05:14:20.632Z,4.80
2019-03-05T05:16:47.053Z,4.90
2019-03-05T05:19:13.496Z,4.90
2019-03-05T05:21:40.252Z,4.80
2019-03-05T05:24:06.712Z,4.80
2019-03-05T05:26:33.174Z,4.90
2019-03-05T05:28:59.737Z,4.90
2019-03-05T05:31:26.156Z,4.80
2019-03-05T05:33:52.614Z,4.90
2019-03-05T05:36:19.138Z,5.00
2019-03-05T05:38:45.565Z,5.00
2019-03-05T05:41:12.027Z,5.00
2019-03-05T05:43:38.455Z,5.10
2019-03-05T05:46:04.991Z,5.20
2019-03-05T05:48:31.445Z,5.20
2019-03-05T05:50:57.887Z,5.20
2019-03-05T05:53:24.307Z,5.20
2019-03-05T05:55:50.753Z,5.30
2019-03-05T05:58:17.309Z,5.30
2019-03-05T06:00:48.882Z,5.30
2019-03-05T06:03:15.414Z,5.40
2019-03-05T06:05:41.876Z,5.50
2019-03-05T06:08:08.359Z,5.50
2019-03-05T06:10:35.055Z,5.50
2019-03-05T06:13:01.533Z,5.60
2019-03-05T06:15:28.053Z,5.60
2019-03-05T06:17:54.605Z,5.60
2019-03-05T06:20:21.055Z,5.60
2019-03-05T06:22:47.507Z,5.60
2019-03-05T06:25:14.273Z,5.50
2019-03-05T06:27:40.730Z,5.50
2019-03-05T06:30:17.870Z,5.40
2019-03-05T06:32:44.463Z,5.60
2019-03-05T06:35:11.440Z,5.60
2019-03-05T06:37:37.898Z,5.70
2019-03-05T06:40:10.924Z,5.80
2019-03-05T06:42:37.355Z,5.90
2019-03-05T06:45:06.898Z,5.90
2019-03-05T06:47:33.334Z,6.00
2019-03-05T06:49:59.852Z,6.10
2019-03-05T06:52:26.269Z,6.20
2019-03-05T06:54:52.719Z,6.30
2019-03-05T06:57:19.145Z,6.40
2019-03-05T06:59:45.573Z,6.40
2019-03-05T07:02:12.024Z,6.40
2019-03-05T07:04:38.457Z,6.30
2019-03-05T07:07:04.997Z,6.50
2019-03-05T07:09:41.066Z,6.50
2019-03-05T07:12:14.362Z,6.60
2019-03-05T07:15:07.542Z,6.60
2019-03-05T07:17:58.636Z,6.60
2019-03-05T07:21:00.207Z,6.70
2019-03-05T07:23:56.039Z,6.80
2019-03-05T07:26:22.598Z,6.60
2019-03-05T07:28:49.017Z,6.50
2019-03-05T07:31:15.462Z,6.70
2019-03-05T07:33:41.918Z,6.70
2019-03-05T07:36:08.463Z,6.60
2019-03-05T07:38:36.126Z,6.60
2019-03-05T07:41:02.668Z,6.60
2019-03-05T07:43:36.462Z,6.60
2019-03-05T07:45:57.406Z,6.50
2019-03-05T07:48:23.851Z,6.50
2019-03-05T07:50:50.280Z,6.80
2019-03-05T07:53:16.752Z,7.00
2019-03-05T07:55:43.195Z,7.10
2019-03-05T07:58:09.730Z,7.10
2019-03-05T08:00:36.677Z,7.10
2019-03-05T08:03:03.249Z,7.40
2019-03-05T08:05:29.666Z,7.50
2019-03-05T08:07:59.922Z,7.80
2019-03-05T08:10:28.769Z,8.00
2019-03-05T08:13:14.342Z,8.10
2019-03-05T08:15:47.616Z,8.00
2019-03-05T08:18:14.061Z,8.20
2019-03-05T08:20:40.597Z,8.30
2019-03-05T08:23:08.242Z,8.30
2019-03-05T08:25:34.676Z,8.40
2019-03-05T08:28:01.123Z,8.40
2019-03-05T08:30:27.768Z,8.40
2019-03-05T08:32:54.338Z,8.60
2019-03-05T08:35:20.799Z,8.60
2019-03-05T08:37:47.279Z,8.40
2019-03-05T08:40:14.911Z,8.40
2019-03-05T08:42:41.378Z,8.60
2019-03-05T08:45:13.227Z,8.60
2019-03-05T08:47:39.928Z,8.80
2019-03-05T08:50:13.715Z,8.90
2019-03-05T08:52:40.171Z,8.80
2019-03-05T08:55:08.606Z,8.70
2019-03-05T08:57:35.150Z,9.00
2019-03-05T09:00:04.713Z,9.00
2019-03-05T09:02:31.634Z,9.20
2019-03-05T09:04:58.179Z,9.10
2019-03-05T09:07:24.823Z,9.40
2019-03-05T09:09:51.277Z,9.60
2019-03-05T09:12:17.747Z,10.00
2019-03-05T09:14:44.193Z,10.20
2019-03-05T09:17:11.225Z,10.00
2019-03-05T09:19:37.805Z,10.20
2019-03-05T09:22:05.583Z,10.40
2019-03-05T09:24:32.166Z,10.40
2019-03-05T09:26:58.727Z,10.40
2019-03-05T09:29:25.291Z,10.60
2019-03-05T09:31:51.896Z,10.80
2019-03-05T09:34:18.470Z,11.00
2019-03-05T09:36:51.057Z,11.00
2019-03-05T09:39:13.347Z,11.10
2019-03-05T09:41:40.489Z,11.20
2019-03-05T09:44:07.031Z,10.90
2019-03-05T09:46:33.498Z,10.80
2019-03-05T09:48:59.929Z,11.10
2019-03-05T09:51:26.411Z,11.40
2019-03-05T09:53:53.040Z,11.50
2019-03-05T09:56:19.494Z,11.30
2019-03-05T09:58:45.967Z,11.40
2019-03-05T10:01:12.502Z,11.60
2019-03-05T10:03:39.034Z,11.80
2019-03-05T10:06:06.598Z,11.80
2019-03-05T10:08:33.068Z,11.50
2019-03-05T10:10:59.695Z,11.70
2019-03-05T10:13:26.237Z,11.60
2019-03-05T10:15:53.583Z,11.80
2019-03-05T10:18:20.472Z,12.20
2019-03-05T10:20:47.031Z,12.40
2019-03-05T10:23:13.614Z,12.50
2019-03-05T10:25:40.248Z,12.40
2019-03-05T10:28:06.861Z,12.40
2019-03-05T10:30:38.473Z,12.40
2019-03-05T10:33:09.782Z,12.30
2019-03-05T10:35:36.520Z,12.10
2019-03-05T10:38:06.202Z,12.00
2019-03-05T10:40:48.223Z,11.80
2019-03-05T10:43:16.068Z,11.90
2019-03-05T10:45:44.807Z,12.20
2019-03-05T10:48:12.843Z,12.10
2019-03-05T10:50:39.505Z,12.40
2019-03-05T10:53:06.245Z,12.50
2019-03-05T10:55:32.930Z,12.50
2019-03-05T10:57:59.659Z,12.80
2019-03-05T11:00:34.961Z,12.80
2019-03-05T11:03:01.803Z,13.20
2019-03-05T11:05:30.966Z,13.10
2019-03-05T11:07:57.816Z,13.40
2019-03-05T11:10:27.686Z,13.30
2019-03-05T11:12:54.234Z,14.10
2019-03-05T11:15:26.204Z,14.00
2019-03-05T11:17:52.960Z,14.00
2019-03-05T11:20:19.714Z,14.50
2019-03-05T11:22:47.285Z,14.70
2019-03-05T11:25:14.713Z,14.90
2019-03-05T11:27:41.401Z,15.40
2019-03-05T11:30:35.723Z,15.20
2019-03-05T11:32:55.191Z,16.30
2019-03-05T11:35:24.486Z,17.00
2019-03-05T11:37:51.120Z,18.40
2019-03-05T11:40:21.275Z,19.90
2019-03-05T11:42:47.554Z,23.40
2019-03-05T11:45:23.036Z,22.90
2019-03-05T11:47:49.706Z,25.60
2019-03-05T11:50:16.379Z,25.50
2019-03-05T11:52:42.924Z,28.00
2019-03-05T11:55:15.473Z,27.60
2019-03-05T11:57:42.587Z,28.60
2019-03-05T12:00:15.722Z,29.70
2019-03-05T12:02:42.263Z,28.70
2019-03-05T12:05:12.128Z,29.30
2019-03-05T12:07:38.789Z,29.80
2019-03-05T12:10:09.021Z,29.50
2019-03-05T12:12:35.574Z,30.40
2019-03-05T12:15:04.214Z,31.00
2019-03-05T12:17:30.784Z,29.40
2019-03-05T12:19:57.236Z,30.30
2019-03-05T12:22:23.800Z,32.20
2019-03-05T12:24:50.233Z,30.80
2019-03-05T12:27:16.696Z,31.10
2019-03-05T12:29:43.159Z,28.20
2019-03-05T12:32:09.577Z,27.90
2019-03-05T12:34:37.120Z,28.10
2019-03-05T12:37:03.574Z,29.80
2019-03-05T12:39:30.011Z,29.90
2019-03-05T12:41:56.573Z,31.60
2019-03-05T12:44:23.043Z,32.30
2019-03-05T12:46:49.468Z,31.90
2019-03-05T12:49:17.130Z,32.00
2019-03-05T12:51:43.648Z,31.60
2019-03-05T12:54:10.292Z,32.20
2019-03-05T12:56:36.750Z,31.60
2019-03-05T12:59:03.405Z,30.60
2019-03-05T13:01:29.887Z,30.90
2019-03-05T13:03:56.433Z,31.40
2019-03-05T13:06:22.901Z,31.90
2019-03-05T13:08:49.334Z,33.10
2019-03-05T13:11:15.875Z,33.10
2019-03-05T13:13:42.336Z,32.50
2019-03-05T13:16:08.964Z,32.30
2019-03-05T13:18:35.410Z,33.30
2019-03-05T13:21:03.525Z,32.10
2019-03-05T13:23:31.501Z,31.90
2019-03-05T13:25:58.896Z,32.10
2019-03-05T13:28:25.458Z,33.00
2019-03-05T13:30:51.901Z,32.40
2019-03-05T13:33:18.475Z,32.30
2019-03-05T13:35:45.018Z,33.60
2019-03-05T13:38:11.587Z,32.10
2019-03-05T13:40:39.985Z,32.50
2019-03-05T13:43:06.613Z,32.20
2019-03-05T13:45:33.257Z,30.20
2019-03-05T13:48:19.512Z,31.50
2019-03-05T13:51:05.724Z,31.40
2019-03-05T13:54:00.907Z,33.30
2019-03-05T13:56:37.775Z,34.60
2019-03-05T13:59:33.453Z,35.30
2019-03-05T14:01:59.982Z,34.20
2019-03-05T14:04:42.286Z,34.60
2019-03-05T14:07:18.147Z,35.60
2019-03-05T14:09:44.410Z,34.70
2019-03-05T14:12:10.942Z,35.30
2019-03-05T14:14:37.439Z,35.70
2019-03-05T14:17:09.081Z,35.30
2019-03-05T14:19:35.782Z,34.90
2019-03-05T14:22:02.489Z,34.00
2019-03-05T14:24:28.931Z,33.50
2019-03-05T14:26:55.397Z,32.90
2019-03-05T14:29:21.897Z,32.80
2019-03-05T14:31:48.463Z,32.80
2019-03-05T14:34:15.135Z,32.60
2019-03-05T14:36:41.728Z,32.10
2019-03-05T14:39:13.924Z,33.10
2019-03-05T14:41:40.478Z,32.40
2019-03-05T14:44:07.349Z,32.70
2019-03-05T14:46:34.908Z,32.90
2019-03-05T14:49:01.591Z,32.80
2019-03-05T14:51:28.188Z,32.20
2019-03-05T14:53:54.749Z,32.20
2019-03-05T14:56:21.163Z,32.10
2019-03-05T14:58:47.617Z,31.80
2019-03-05T15:01:14.185Z,31.30
2019-03-05T15:03:40.661Z,31.60
2019-03-05T15:06:07.081Z,31.50
2019-03-05T15:08:33.672Z,30.90
2019-03-05T15:11:00.139Z,28.50
2019-03-05T15:13:26.578Z,27.10
2019-03-05T15:15:53.034Z,25.80
2019-03-05T15:18:19.493Z,25.00
2019-03-05T15:20:45.927Z,23.20
2019-03-05T15:23:12.461Z,21.50
2019-03-05T15:25:39.094Z,20.80
2019-03-05T15:28:05.591Z,20.20
2019-03-05T15:30:32.134Z,19.60
2019-03-05T15:32:58.566Z,19.40
2019-03-05T15:35:25.069Z,19.80
2019-03-05T15:37:51.510Z,19.10
2019-03-05T15:40:18.791Z,18.40
2019-03-05T15:42:45.515Z,17.90
2019-03-05T15:45:15.014Z,18.50
2019-03-05T15:47:42.704Z,18.60
2019-03-05T15:50:12.208Z,18.20
2019-03-05T15:52:38.643Z,18.00
2019-03-05T15:55:08.502Z,19.10
2019-03-05T15:57:34.972Z,18.50
2019-03-05T16:00:02.438Z,17.90
2019-03-05T16:02:30.478Z,17.50
2019-03-05T16:04:57.070Z,17.10
2019-03-05T16:07:23.520Z,16.60
2019-03-05T16:09:50.930Z,16.40
2019-03-05T16:12:17.662Z,16.30
2019-03-05T16:14:44.113Z,16.00
2019-03-05T16:17:10.656Z,15.60
2019-03-05T16:19:37.220Z,15.40
2019-03-05T16:22:03.811Z,15.40
2019-03-05T16:24:33.764Z,15.20
2019-03-05T16:26:58.644Z,15.20
2019-03-05T16:29:25.118Z,15.00
2019-03-05T16:31:53.459Z,14.80
2019-03-05T16:34:33.723Z,14.90
2019-03-05T16:37:05.752Z,14.60
2019-03-05T16:39:35.292Z,14.30
2019-03-05T16:42:22.274Z,13.90
2019-03-05T16:44:50.674Z,13.90
2019-03-05T16:47:27.901Z,13.60
2019-03-05T16:50:05.413Z,13.60
2019-03-05T16:52:33.881Z,13.40
2019-03-05T16:55:05.262Z,13.10
2019-03-05T16:57:36.640Z,12.80
2019-03-05T17:00:16.198Z,12.70
2019-03-05T17:02:45.275Z,12.70
2019-03-05T17:05:23.408Z,12.50
2019-03-05T17:07:58.168Z,12.30
2019-03-05T17:10:30.164Z,12.20
2019-03-05T17:13:01.571Z,12.10
2019-03-05T17:15:28.887Z,12.20
2019-03-05T17:17:55.511Z,12.10
2019-03-05T17:20:22.125Z,11.90
2019-03-05T17:22:49.218Z,11.80
2019-03-05T17:25:18.757Z,11.60
2019-03-05T17:27:45.267Z,11.30
2019-03-05T17:30:15.140Z,11.30
2019-03-05T17:32:41.971Z,11.00
2019-03-05T17:35:09.529Z,11.00
2019-03-05T17:37:37.586Z,11.00
2019-03-05T17:40:07.961Z,10.70
2019-03-05T17:42:34.919Z,10.50
2019-03-05T17:45:01.509Z,10.60
2019-03-05T17:47:29.386Z,10.60
2019-03-05T17:49:55.942Z,10.40
2019-03-05T17:52:22.668Z,10.20
2019-03-05T17:54:49.182Z,10.20
2019-03-05T17:57:16.080Z,10.20
2019-03-05T17:59:42.649Z,10.30
2019-03-05T18:02:09.482Z,10.10
2019-03-05T18:04:36.120Z,9.80
2019-03-05T18:07:02.889Z,10.10
2019-03-05T18:09:29.431Z,10.20
2019-03-05T18:11:55.997Z,10.00
2019-03-05T18:14:23.671Z,9.70
2019-03-05T18:16:50.225Z,9.70
2019-03-05T18:19:16.822Z,9.80
2019-03-05T18:21:43.486Z,9.50
2019-03-05T18:24:10.053Z,9.20
2019-03-05T18:26:36.637Z,9.00
2019-03-05T18:29:03.610Z,9.00
2019-03-05T18:31:30.266Z,8.90
2019-03-05T18:33:56.835Z,8.60
2019-03-05T18:36:23.304Z,8.40
2019-03-05T18:38:50.081Z,8.40
2019-03-05T18:41:16.938Z,8.50
2019-03-05T18:43:43.666Z,8.30
2019-03-05T18:46:10.625Z,8.10
2019-03-05T18:48:37.211Z,8.10
2019-03-05T18:51:04.128Z,8.00
2019-03-05T18:53:30.595Z,7.90
2019-03-05T18:55:57.117Z,8.10
2019-03-05T18:58:23.598Z,8.00
2019-03-05T19:00:50.259Z,8.10
2019-03-05T19:03:18.446Z,8.10
2019-03-05T19:05:45.008Z,8.00
2019-03-05T19:08:11.651Z,8.10
2019-03-05T19:10:49.035Z,8.20
2019-03-05T19:13:15.703Z,8.10
2019-03-05T19:15:42.660Z,7.90
2019-03-05T19:18:09.257Z,8.00
2019-03-05T19:20:35.938Z,8.00
2019-03-05T19:23:02.727Z,7.90
2019-03-05T19:25:38.543Z,7.70
2019-03-05T19:28:05.235Z,7.80
2019-03-05T19:30:37.067Z,7.80
2019-03-05T19:33:04.135Z,7.80
2019-03-05T19:35:30.743Z,7.80
2019-03-05T19:37:57.337Z,7.60
2019-03-05T19:40:27.638Z,7.30
2019-03-05T19:42:54.313Z,7.30
2019-03-05T19:45:22.198Z,7.30
2019-03-05T19:47:48.790Z,7.50
2019-03-05T19:50:20.258Z,7.40
2019-03-05T19:52:46.983Z,7.60
2019-03-05T19:55:19.731Z,7.60
2019-03-05T19:57:46.569Z,7.60
2019-03-05T20:00:29.254Z,7.50
2019-03-05T20:02:55.702Z,7.40
2019-03-05T20:05:23.693Z,7.30
2019-03-05T20:07:50.388Z,7.40
2019-03-05T20:10:23.131Z,7.10
2019-03-05T20:12:49.791Z,7.10
2019-03-05T20:15:16.764Z,7.10
2019-03-05T20:17:43.639Z,7.10
2019-03-05T20:20:12.477Z,7.20
2019-03-05T20:22:39.170Z,7.20
2019-03-05T20:25:09.395Z,7.20
2019-03-05T20:27:36.124Z,7.20
2019-03-05T20:30:06.266Z,7.10
2019-03-05T20:32:34.638Z,7.10
2019-03-05T20:35:01.352Z,7.00
2019-03-05T20:37:28.670Z,6.80
2019-03-05T20:39:55.684Z,6.80
2019-03-05T20:42:22.591Z,6.80
2019-03-05T20:44:49.601Z,6.80
2019-03-05T20:47:16.180Z,6.90
2019-03-05T20:49:42.784Z,6.90
2019-03-05T20:52:09.440Z,7.00
2019-03-05T20:54:36.132Z,6.90
2019-03-05T20:57:03.051Z,6.60
2019-03-05T20:59:30.048Z,6.70
2019-03-05T21:01:56.798Z,6.60
2019-03-05T21:04:23.467Z,6.70
2019-03-05T21:06:50.171Z,6.60
2019-03-05T21:09:20.931Z,6.50
2019-03-05T21:11:47.713Z,6.60
2019-03-05T21:14:14.597Z,6.60
2019-03-05T21:16:41.030Z,6.50
2019-03-05T21:19:07.595Z,6.60
2019-03-05T21:21:34.162Z,6.70
2019-03-05T21:24:00.717Z,6.60
2019-03-05T21:26:27.270Z,6.50
2019-03-05T21:28:53.984Z,6.50
2019-03-05T21:31:20.629Z,6.50
2019-03-05T21:33:47.236Z,6.50
2019-03-05T21:36:13.801Z,6.50
2019-03-05T21:38:40.227Z,6.60
2019-03-05T21:41:06.791Z,6.70
2019-03-05T21:43:33.339Z,6.60
2019-03-05T21:46:06.346Z,6.60
2019-03-05T21:48:33.032Z,6.50
2019-03-05T21:50:59.579Z,6.50
2019-03-05T21:53:26.032Z,6.30
2019-03-05T21:55:53.178Z,6.30
2019-03-05T21:58:19.741Z,6.40
2019-03-05T22:00:46.288Z,6.20
2019-03-05T22:03:12.959Z,6.10
2019-03-05T22:05:39.623Z,6.20
2019-03-05T22:08:06.194Z,6.20
2019-03-05T22:10:33.130Z,6.30
2019-03-05T22:12:59.793Z,6.30
2019-03-05T22:15:28.308Z,6.20
2019-03-05T22:17:54.862Z,6.10
2019-03-05T22:20:23.103Z,6.00
2019-03-05T22:22:50.653Z,6.10
2019-03-05T22:25:19.006Z,6.00
2019-03-05T22:27:45.769Z,6.00
2019-03-05T22:30:14.904Z,6.20
2019-03-05T22:32:41.490Z,6.20
2019-03-05T22:35:08.466Z,6.20
2019-03-05T22:37:35.409Z,6.00
2019-03-05T22:40:04.971Z,5.90
2019-03-05T22:42:31.756Z,5.90
2019-03-05T22:44:58.337Z,5.90
2019-03-05T22:47:24.899Z,5.90
2019-03-05T22:49:51.355Z,6.10
2019-03-05T22:52:18.102Z,6.10
2019-03-05T22:54:44.577Z,6.10
2019-03-05T22:57:12.227Z,6.10
2019-03-05T22:59:38.865Z,6.10
2019-03-05T23:02:06.633Z,5.90
2019-03-05T23:04:34.204Z,5.80
2019-03-05T23:07:00.856Z,5.80
2019-03-05T23:09:28.699Z,5.80
2019-03-05T23:11:56.145Z,5.80
2019-03-05T23:14:22.862Z,5.50
2019-03-05T23:16:50.713Z,5.20
2019-03-05T23:19:17.653Z,5.10
2019-03-05T23:21:44.392Z,4.90
2019-03-05T23:24:11.228Z,5.00
2019-03-05T23:26:37.799Z,5.00
2019-03-05T23:29:07.239Z,5.10
2019-03-05T23:31:33.800Z,4.90
2019-03-05T23:34:00.653Z,4.90
2019-03-05T23:36:27.293Z,4.80
2019-03-05T23:38:53.898Z,4.80
2019-03-05T23:41:20.374Z,4.80
2019-03-05T23:43:46.963Z,4.90
2019-03-05T23:46:14.564Z,4.80
2019-03-05T23:48:41.522Z,4.80
2019-03-05T23:51:07.973Z,4.50
2019-03-05T23:53:34.531Z,4.60
2019-03-05T23:56:00.979Z,4.60
2019-03-05T23:58:27.398Z,4.40
